Terminal Aerodrome Forecast
Issued by NWS

Home | Current Version | Previous Version | Text Only | Print | Product List | Glossary Off
Versions: 1 2 3 4 5 6 7 8 9 10 11 12 13 14 15 16 17 18 19 20 21 22 23 24 25 26 27 28 29 30

000
FTUS43 KABR 022154 AAB
TAFPIR
TAF AMD
KPIR 022154Z 0222/0318 22007KT P6SM SCT015 SCT023 OVC080
     FM022300 22004KT P6SM BKN025
     FM030400 21004KT 2SM BR SCT045
     FM030600 21004KT 3SM BR SCT100
     FM030800 19005KT 1 1/2SM BR SCT080
     FM031400 16007KT 4SM BR BKN040
     FM031600 16007KT P6SM SCT050=

USA.gov is the U.S. government's official web portal to all federal, state and local government web resources and services.